< < Back
Terminal Aerodrome Forecast


Current Version              Previous Versions:   1  2  3  4  5  6  7  8  9  

Terminal Aerodrome Forecast

368
FTUS44 KHUN 241721
TAFHSV
TAF
KHSV 241721Z 2418/2518 VRB04KT P6SM SKC
     FM250000 VRB03KT P6SM SKC=



Latest METAR

109
SAUS80 KWBC 251700
MTRHSV
METAR KHSV 251653Z 00000KT 10SM CLR 22/11 A3010 RMK AO2 SLP189
T02170111


USA.gov is the U.S. government's official web portal to all federal, state and local government web resources and services.